sensor_id;sensor_type;location;lat;lon;timestamp;pressure;altitude;pressure_sealevel;temperature;humidity
74437;BME280;62868;52.360;30.424;2023-08-20T00:00:45;1030.5;;;23.4;60.2
74437;BME280;62868;52.360;30.424;2023-08-20T00:06:01;1030.4;;;23.4;60.4
74437;BME280;62868;52.360;30.424;2023-08-20T00:10:29;1030.4;;;23.3;60.5
74437;BME280;62868;52.360;30.424;2023-08-20T00:15:25;1030.3;;;23.3;60.7
74437;BME280;62868;52.360;30.424;2023-08-20T00:20:47;1030.3;;;23.3;60.8
74437;BME280;62868;52.360;30.424;2023-08-20T00:25:25;1030.2;;;23.2;60.8
74437;BME280;62868;52.360;30.424;2023-08-20T00:30:29;1030.2;;;23.2;60.9
74437;BME280;62868;52.360;30.424;2023-08-20T00:35:51;1030.2;;;23.1;60.9
74437;BME280;62868;52.360;30.424;2023-08-20T00:41:03;1030.2;;;23;60.9
74437;BME280;62868;52.360;30.424;2023-08-20T00:45:29;1030.2;;;23;60.9
74437;BME280;62868;52.360;30.424;2023-08-20T00:50:43;1030.2;;;22.9;61
74437;BME280;62868;52.360;30.424;2023-08-20T00:56:03;1030.2;;;22.9;61
74437;BME280;62868;52.360;30.424;2023-08-20T01:00:45;1030.2;;;22.8;61
74437;BME280;62868;52.360;30.424;2023-08-20T01:05:29;1030.2;;;22.8;61.2
74437;BME280;62868;52.360;30.424;2023-08-20T01:10:27;1030.2;;;22.7;61.2
74437;BME280;62868;52.360;30.424;2023-08-20T01:15:49;1030.1;;;22.6;61.3
74437;BME280;62868;52.360;30.424;2023-08-20T01:20:26;1030.1;;;22.6;61.3
74437;BME280;62868;52.360;30.424;2023-08-20T01:25:30;1030.1;;;22.6;61.3
74437;BME280;62868;52.360;30.424;2023-08-20T01:31:03;1030.1;;;22.5;61.3
74437;BME280;62868;52.360;30.424;2023-08-20T01:35:27;1030;;;22.5;61.4
74437;BME280;62868;52.360;30.424;2023-08-20T01:41:03;1030;;;22.4;61.5
74437;BME280;62868;52.360;30.424;2023-08-20T01:45:43;1030;;;22.3;61.6
74437;BME280;62868;52.360;30.424;2023-08-20T01:50:25;1030;;;22.3;61.7
74437;BME280;62868;52.360;30.424;2023-08-20T01:55:29;1030;;;22.3;61.7
74437;BME280;62868;52.360;30.424;2023-08-20T02:01:03;1030;;;22.2;61.7
74437;BME280;62868;52.360;30.424;2023-08-20T02:05:45;1030;;;22.2;61.8
74437;BME280;62868;52.360;30.424;2023-08-20T02:10:49;1030.1;;;22.2;61.8
74437;BME280;62868;52.360;30.424;2023-08-20T02:16:04;1030.1;;;22.2;61.7
74437;BME280;62868;52.360;30.424;2023-08-20T02:20:55;1030;;;22.1;61.8
74437;BME280;62868;52.360;30.424;2023-08-20T02:25:29;1030;;;22;61.9
74437;BME280;62868;52.360;30.424;2023-08-20T02:30:31;1029.9;;;22;62
74437;BME280;62868;52.360;30.424;2023-08-20T02:35:31;1029.9;;;22;62
74437;BME280;62868;52.360;30.424;2023-08-20T02:41:03;1029.9;;;22;62.1
74437;BME280;62868;52.360;30.424;2023-08-20T02:45:59;1029.9;;;21.9;62.1
74437;BME280;62868;52.360;30.424;2023-08-20T02:51:03;1029.9;;;21.9;62.2
74437;BME280;62868;52.360;30.424;2023-08-20T02:56:03;1029.9;;;21.9;62.2
74437;BME280;62868;52.360;30.424;2023-08-20T03:00:47;1029.9;;;22;62.2
74437;BME280;62868;52.360;30.424;2023-08-20T03:05:51;1029.9;;;22.1;62
74437;BME280;62868;52.360;30.424;2023-08-20T03:11:03;1029.9;;;22.3;61.8
74437;BME280;62868;52.360;30.424;2023-08-20T03:15:37;1029.9;;;22.5;61.9
74437;BME280;62868;52.360;30.424;2023-08-20T03:20:25;1029.9;;;22.6;61.7
74437;BME280;62868;52.360;30.424;2023-08-20T03:26:05;1029.9;;;22.9;61.5
74437;BME280;62868;52.360;30.424;2023-08-20T03:30:25;1029.9;;;23.3;61.1
74437;BME280;62868;52.360;30.424;2023-08-20T03:35:55;1029.8;;;23.6;60.8
74437;BME280;62868;52.360;30.424;2023-08-20T03:40:25;1029.9;;;23.9;60.5
74437;BME280;62868;52.360;30.424;2023-08-20T03:45:49;1029.9;;;24.3;60
74437;BME280;62868;52.360;30.424;2023-08-20T03:50:47;1029.8;;;25.2;58.9
74437;BME280;62868;52.360;30.424;2023-08-20T03:55:55;1029.7;;;27.2;55.5
74437;BME280;62868;52.360;30.424;2023-08-20T04:00:25;1029.8;;;28;54.4
74437;BME280;62868;52.360;30.424;2023-08-20T04:05:25;1029.7;;;29.6;51.7
74437;BME280;62868;52.360;30.424;2023-08-20T04:10:25;1029.6;;;31;49.6
74437;BME280;62868;52.360;30.424;2023-08-20T04:15:39;1029.7;;;30.8;50.6
74437;BME280;62868;52.360;30.424;2023-08-20T04:20:45;1029.6;;;30.3;51.8
74437;BME280;62868;52.360;30.424;2023-08-20T04:26:01;1029.6;;;30.1;52.3
74437;BME280;62868;52.360;30.424;2023-08-20T04:31:03;1029.6;;;29.9;52.2
74437;BME280;62868;52.360;30.424;2023-08-20T04:35:43;1029.5;;;30;51.9
74437;BME280;62868;52.360;30.424;2023-08-20T04:40:45;1029.5;;;29.9;51.7
74437;BME280;62868;52.360;30.424;2023-08-20T04:45:47;1029.5;;;29.9;51.4
74437;BME280;62868;52.360;30.424;2023-08-20T04:50:29;1029.5;;;29.7;51.4
74437;BME280;62868;52.360;30.424;2023-08-20T04:55:35;1029.5;;;29.8;51.2
74437;BME280;62868;52.360;30.424;2023-08-20T05:00:51;1029.5;;;30;50.9
74437;BME280;62868;52.360;30.424;2023-08-20T05:06:03;1029.4;;;30.1;50.8
74437;BME280;62868;52.360;30.424;2023-08-20T05:10:25;1029.3;;;29.9;50.8
74437;BME280;62868;52.360;30.424;2023-08-20T05:15:43;1029.4;;;30;50.5
74437;BME280;62868;52.360;30.424;2023-08-20T05:21:03;1029.4;;;30.3;50.1
74437;BME280;62868;52.360;30.424;2023-08-20T05:25:39;1029.4;;;30.2;50.2
74437;BME280;62868;52.360;30.424;2023-08-20T05:30:35;1029.3;;;30.2;50.2
74437;BME280;62868;52.360;30.424;2023-08-20T05:35:25;1029.3;;;30.2;50.2
74437;BME280;62868;52.360;30.424;2023-08-20T05:41:03;1029.2;;;30.2;50.2
74437;BME280;62868;52.360;30.424;2023-08-20T05:45:25;1029.3;;;30.2;50
74437;BME280;62868;52.360;30.424;2023-08-20T05:50:39;1029.3;;;30.4;49.8
74437;BME280;62868;52.360;30.424;2023-08-20T05:55:37;1029.3;;;30.2;49.8
74437;BME280;62868;52.360;30.424;2023-08-20T06:00:51;1029.2;;;30.3;49.6
74437;BME280;62868;52.360;30.424;2023-08-20T06:05:59;1029.2;;;30.6;49
74437;BME280;62868;52.360;30.424;2023-08-20T06:10:25;1029.2;;;31;48.4
74437;BME280;62868;52.360;30.424;2023-08-20T06:15:25;1029.3;;;31.4;48
74437;BME280;62868;52.360;30.424;2023-08-20T06:20:29;1029.3;;;32;47.4
74437;BME280;62868;52.360;30.424;2023-08-20T06:26:03;1029.2;;;32.5;46.8
74437;BME280;62868;52.360;30.424;2023-08-20T06:30:55;1029.2;;;32.8;46.4
74437;BME280;62868;52.360;30.424;2023-08-20T06:35:33;1029.2;;;33.1;46.1
74437;BME280;62868;52.360;30.424;2023-08-20T06:41:03;1029.1;;;33.5;45.6
74437;BME280;62868;52.360;30.424;2023-08-20T06:45:55;1029.1;;;34;44.9
74437;BME280;62868;52.360;30.424;2023-08-20T06:50:29;1029;;;34.3;44.4
74437;BME280;62868;52.360;30.424;2023-08-20T06:55:29;1029;;;34.4;44
74437;BME280;62868;52.360;30.424;2023-08-20T07:01:03;1029;;;34.3;43.8
74437;BME280;62868;52.360;30.424;2023-08-20T07:06:03;1028.9;;;34.5;43.3
74437;BME280;62868;52.360;30.424;2023-08-20T07:11:03;1028.9;;;34.6;43
74437;BME280;62868;52.360;30.424;2023-08-20T07:16:03;1028.9;;;34.8;42.6
74437;BME280;62868;52.360;30.424;2023-08-20T07:20:55;1028.9;;;35;42.4
74437;BME280;62868;52.360;30.424;2023-08-20T07:25:25;1028.8;;;35.2;41.9
74437;BME280;62868;52.360;30.424;2023-08-20T07:30:55;1028.8;;;35.6;41.4
74437;BME280;62868;52.360;30.424;2023-08-20T07:36:03;1028.8;;;36.1;41.1
74437;BME280;62868;52.360;30.424;2023-08-20T07:40:47;1028.8;;;36.2;40.7
74437;BME280;62868;52.360;30.424;2023-08-20T07:45:35;1028.8;;;36.4;40.3
74437;BME280;62868;52.360;30.424;2023-08-20T07:51:03;1028.8;;;36.6;40.1
74437;BME280;62868;52.360;30.424;2023-08-20T07:55:49;1028.8;;;36.7;39.8
74437;BME280;62868;52.360;30.424;2023-08-20T08:00:29;1028.8;;;36.7;39.7
74437;BME280;62868;52.360;30.424;2023-08-20T08:05:29;1028.8;;;36.8;39.6
74437;BME280;62868;52.360;30.424;2023-08-20T08:10:47;1028.8;;;36.8;39.5
74437;BME280;62868;52.360;30.424;2023-08-20T08:15:43;1028.8;;;36.9;39
74437;BME280;62868;52.360;30.424;2023-08-20T08:20:55;1028.7;;;37.6;38.3
74437;BME280;62868;52.360;30.424;2023-08-20T08:25:41;1028.7;;;37.8;38
74437;BME280;62868;52.360;30.424;2023-08-20T08:30:25;1028.6;;;38.2;37.8
74437;BME280;62868;52.360;30.424;2023-08-20T08:35:25;1028.6;;;38.5;37.5
74437;BME280;62868;52.360;30.424;2023-08-20T08:40:39;1028.6;;;38.4;37.4
74437;BME280;62868;52.360;30.424;2023-08-20T08:45:25;1028.6;;;38.4;37.3
74437;BME280;62868;52.360;30.424;2023-08-20T08:50:47;1028.6;;;38.5;37
74437;BME280;62868;52.360;30.424;2023-08-20T08:56:05;1028.5;;;38.4;36.8
74437;BME280;62868;52.360;30.424;2023-08-20T09:00:25;1028.5;;;38.4;36.6
74437;BME280;62868;52.360;30.424;2023-08-20T09:05:29;1028.5;;;38.8;36.1
74437;BME280;62868;52.360;30.424;2023-08-20T09:10:33;1028.5;;;39.2;35.8
74437;BME280;62868;52.360;30.424;2023-08-20T09:15:39;1028.4;;;39;35.6
74437;BME280;62868;52.360;30.424;2023-08-20T09:20:53;1028.4;;;38.7;35.6
74437;BME280;62868;52.360;30.424;2023-08-20T09:25:53;1028.3;;;38.6;35.4
74437;BME280;62868;52.360;30.424;2023-08-20T09:31:05;1028.3;;;38.7;35.3
74437;BME280;62868;52.360;30.424;2023-08-20T09:35:29;1028.3;;;38.7;35
74437;BME280;62868;52.360;30.424;2023-08-20T09:40:29;1028.3;;;38.5;35
74437;BME280;62868;52.360;30.424;2023-08-20T09:46:03;1028.3;;;38.9;34.7
74437;BME280;62868;52.360;30.424;2023-08-20T09:50:35;1028.2;;;39;34.5
74437;BME280;62868;52.360;30.424;2023-08-20T09:55:28;1028.2;;;38.9;34.6
74437;BME280;62868;52.360;30.424;2023-08-20T10:00:25;1028.2;;;39.1;34.3
74437;BME280;62868;52.360;30.424;2023-08-20T10:06:05;1028.2;;;38.9;34.3
74437;BME280;62868;52.360;30.424;2023-08-20T10:10:25;1028.2;;;38.8;34.3
74437;BME280;62868;52.360;30.424;2023-08-20T10:15:39;1028.2;;;38.7;34
74437;BME280;62868;52.360;30.424;2023-08-20T10:20:56;1028.1;;;38.5;33.8
74437;BME280;62868;52.360;30.424;2023-08-20T10:25:27;1028.1;;;38.5;33.5
74437;BME280;62868;52.360;30.424;2023-08-20T10:31:06;1028.1;;;38.6;33.5
74437;BME280;62868;52.360;30.424;2023-08-20T10:35:46;1028;;;38.8;33.4
74437;BME280;62868;52.360;30.424;2023-08-20T10:41:01;1027.9;;;38.5;33.5
74437;BME280;62868;52.360;30.424;2023-08-20T10:45:25;1027.8;;;38.7;33.2
74437;BME280;62868;52.360;30.424;2023-08-20T10:51:06;1027.8;;;38.8;33
74437;BME280;62868;52.360;30.424;2023-08-20T10:55:59;1027.7;;;38.9;32.9
74437;BME280;62868;52.360;30.424;2023-08-20T11:01:11;1027.6;;;39.1;32.6
74437;BME280;62868;52.360;30.424;2023-08-20T11:06:03;1027.5;;;39.2;32.3
74437;BME280;62868;52.360;30.424;2023-08-20T11:10:55;1027.5;;;39.1;32.1
74437;BME280;62868;52.360;30.424;2023-08-20T11:15:29;1027.5;;;39.2;31.9
74437;BME280;62868;52.360;30.424;2023-08-20T11:20:53;1027.4;;;39.4;31.6
74437;BME280;62868;52.360;30.424;2023-08-20T11:26:03;1027.3;;;39.5;31.6
74437;BME280;62868;52.360;30.424;2023-08-20T11:31:03;1027.3;;;39.5;31.4
74437;BME280;62868;52.360;30.424;2023-08-20T11:36:03;1027.2;;;39.4;31.2
74437;BME280;62868;52.360;30.424;2023-08-20T11:41:05;1027.2;;;39.3;31
74437;BME280;62868;52.360;30.424;2023-08-20T11:45:27;1027.1;;;39.6;30.8
74437;BME280;62868;52.360;30.424;2023-08-20T11:50:25;1027;;;39.4;31.3
74437;BME280;62868;52.360;30.424;2023-08-20T11:55:55;1027;;;39.3;31.5
74437;BME280;62868;52.360;30.424;2023-08-20T12:01:06;1027;;;39.2;31.4
74437;BME280;62868;52.360;30.424;2023-08-20T12:05:49;1026.9;;;39.1;31.4
74437;BME280;62868;52.360;30.424;2023-08-20T12:10:33;1026.9;;;38.7;31.8
74437;BME280;62868;52.360;30.424;2023-08-20T12:16:03;1026.9;;;38.2;32.2
74437;BME280;62868;52.360;30.424;2023-08-20T12:20:27;1026.9;;;38.2;32.1
74437;BME280;62868;52.360;30.424;2023-08-20T12:25:35;1026.9;;;38.1;32.1
74437;BME280;62868;52.360;30.424;2023-08-20T12:30:39;1026.8;;;37.7;32.5
74437;BME280;62868;52.360;30.424;2023-08-20T12:35:37;1026.9;;;37.7;32.4
74437;BME280;62868;52.360;30.424;2023-08-20T12:41:03;1026.9;;;37.3;32.6
74437;BME280;62868;52.360;30.424;2023-08-20T12:45:51;1026.8;;;37.2;32.7
74437;BME280;62868;52.360;30.424;2023-08-20T12:50:29;1026.8;;;37.4;32.3
74437;BME280;62868;52.360;30.424;2023-08-20T12:55:51;1026.8;;;37.5;32
74437;BME280;62868;52.360;30.424;2023-08-20T13:00:35;1026.7;;;37.7;31.7
74437;BME280;62868;52.360;30.424;2023-08-20T13:05:39;1026.7;;;37.7;31.5
74437;BME280;62868;52.360;30.424;2023-08-20T13:10:25;1026.7;;;37.5;31.6
74437;BME280;62868;52.360;30.424;2023-08-20T13:15:47;1026.6;;;37;31.7
74437;BME280;62868;52.360;30.424;2023-08-20T13:21:03;1026.6;;;36.8;31.8
74437;BME280;62868;52.360;30.424;2023-08-20T13:25:43;1026.6;;;36.7;31.9
74437;BME280;62868;52.360;30.424;2023-08-20T13:30:25;1026.6;;;36.6;32.1
74437;BME280;62868;52.360;30.424;2023-08-20T13:35:47;1026.6;;;36.3;32.2
74437;BME280;62868;52.360;30.424;2023-08-20T13:40:25;1026.5;;;36;32.3
74437;BME280;62868;52.360;30.424;2023-08-20T13:45:25;1026.5;;;36.1;32.4
74437;BME280;62868;52.360;30.424;2023-08-20T13:50:37;1026.5;;;36.1;32.4
74437;BME280;62868;52.360;30.424;2023-08-20T13:56:03;1026.4;;;36;32.5
74437;BME280;62868;52.360;30.424;2023-08-20T14:00:25;1026.4;;;36;32.6
74437;BME280;62868;52.360;30.424;2023-08-20T14:05:25;1026.3;;;36;32.6
74437;BME280;62868;52.360;30.424;2023-08-20T14:11:03;1026.3;;;35.9;32.7
74437;BME280;62868;52.360;30.424;2023-08-20T14:15:39;1026.4;;;35.6;32.9
74437;BME280;62868;52.360;30.424;2023-08-20T14:20:37;1026.3;;;35.4;33.1
74437;BME280;62868;52.360;30.424;2023-08-20T14:25:55;1026.3;;;35.2;33.4
74437;BME280;62868;52.360;30.424;2023-08-20T14:31:05;1026.3;;;34.8;33.9
74437;BME280;62868;52.360;30.424;2023-08-20T14:35:25;1026.3;;;34.7;34
74437;BME280;62868;52.360;30.424;2023-08-20T14:40:25;1026.2;;;34.6;34
74437;BME280;62868;52.360;30.424;2023-08-20T14:45:27;1026.2;;;34.6;34.1
74437;BME280;62868;52.360;30.424;2023-08-20T14:50:41;1026.2;;;34.4;34.4
74437;BME280;62868;52.360;30.424;2023-08-20T14:56:05;1026.2;;;34.2;34.6
74437;BME280;62868;52.360;30.424;2023-08-20T15:00:25;1026.2;;;34;34.8
74437;BME280;62868;52.360;30.424;2023-08-20T15:05:44;1026.2;;;33.8;35.1
74437;BME280;62868;52.360;30.424;2023-08-20T15:10:25;1026.2;;;33.7;35.4
74437;BME280;62868;52.360;30.424;2023-08-20T15:16:05;1026.2;;;33.5;35.6
74437;BME280;62868;52.360;30.424;2023-08-20T15:20:53;1026.2;;;33.3;35.7
74437;BME280;62868;52.360;30.424;2023-08-20T15:25:51;1026.2;;;33.2;35.9
74437;BME280;62868;52.360;30.424;2023-08-20T15:31:03;1026.2;;;33;36.1
74437;BME280;62868;52.360;30.424;2023-08-20T15:35:27;1026.2;;;32.8;36.4
74437;BME280;62868;52.360;30.424;2023-08-20T15:40:52;1026.2;;;32.7;36.5
74437;BME280;62868;52.360;30.424;2023-08-20T15:45:25;1026.2;;;32.5;36.8
74437;BME280;62868;52.360;30.424;2023-08-20T15:51:03;1026.3;;;32.4;37.2
74437;BME280;62868;52.360;30.424;2023-08-20T15:56:03;1026.3;;;32.2;37.4
74437;BME280;62868;52.360;30.424;2023-08-20T16:00:47;1026.3;;;32.1;37.8
74437;BME280;62868;52.360;30.424;2023-08-20T16:06:03;1026.2;;;32;38.1
74437;BME280;62868;52.360;30.424;2023-08-20T16:10:55;1026.2;;;31.9;38.4
74437;BME280;62868;52.360;30.424;2023-08-20T16:15:47;1026.2;;;31.9;38.7
74437;BME280;62868;52.360;30.424;2023-08-20T16:20:55;1026.2;;;32;38.8
74437;BME280;62868;52.360;30.424;2023-08-20T16:26:03;1026.3;;;32.1;39
74437;BME280;62868;52.360;30.424;2023-08-20T16:30:47;1026.3;;;32.1;39.3
74437;BME280;62868;52.360;30.424;2023-08-20T16:35:25;1026.4;;;32;39.7
74437;BME280;62868;52.360;30.424;2023-08-20T16:41:03;1026.7;;;31.8;40
74437;BME280;62868;52.360;30.424;2023-08-20T16:45:25;1026.9;;;31;40.5
74437;BME280;62868;52.360;30.424;2023-08-20T16:50:35;1026.9;;;30.2;41
74437;BME280;62868;52.360;30.424;2023-08-20T16:55:39;1026.9;;;29.5;41.4
74437;BME280;62868;52.360;30.424;2023-08-20T17:00:47;1026.9;;;29.1;41.6
74437;BME280;62868;52.360;30.424;2023-08-20T17:05:41;1027;;;28.5;42.3
74437;BME280;62868;52.360;30.424;2023-08-20T17:11:02;1026.9;;;28;42.9
74437;BME280;62868;52.360;30.424;2023-08-20T17:15:25;1027;;;27.7;43.4
74437;BME280;62868;52.360;30.424;2023-08-20T17:20:29;1027;;;27.4;44
74437;BME280;62868;52.360;30.424;2023-08-20T17:25:25;1027;;;27.1;44.6
74437;BME280;62868;52.360;30.424;2023-08-20T17:30:55;1027.1;;;26.8;45
74437;BME280;62868;52.360;30.424;2023-08-20T17:35:35;1027.2;;;26.6;45.5
74437;BME280;62868;52.360;30.424;2023-08-20T17:40:39;1027.4;;;26.5;45.9
74437;BME280;62868;52.360;30.424;2023-08-20T17:46:03;1027.5;;;26.3;46.4
74437;BME280;62868;52.360;30.424;2023-08-20T17:50:43;1027.5;;;26.1;47
74437;BME280;62868;52.360;30.424;2023-08-20T17:55:25;1027.5;;;25.9;47.6
74437;BME280;62868;52.360;30.424;2023-08-20T18:00:48;1027.5;;;25.8;48.2
74437;BME280;62868;52.360;30.424;2023-08-20T18:05:25;1027.5;;;25.7;48.5
74437;BME280;62868;52.360;30.424;2023-08-20T18:10:36;1027.5;;;25.6;48.9
74437;BME280;62868;52.360;30.424;2023-08-20T18:16:03;1027.5;;;25.5;49.1
74437;BME280;62868;52.360;30.424;2023-08-20T18:21:03;1027.5;;;25.5;49.5
74437;BME280;62868;52.360;30.424;2023-08-20T18:25:29;1027.5;;;25.4;49.9
74437;BME280;62868;52.360;30.424;2023-08-20T18:30:25;1027.5;;;25.4;50.2
74437;BME280;62868;52.360;30.424;2023-08-20T18:36:03;1027.4;;;25.3;50.5
74437;BME280;62868;52.360;30.424;2023-08-20T18:40:51;1027.3;;;25.3;50.8
74437;BME280;62868;52.360;30.424;2023-08-20T18:45:29;1027.3;;;25.2;51
74437;BME280;62868;52.360;30.424;2023-08-20T18:50:39;1027.2;;;25.2;51.2
74437;BME280;62868;52.360;30.424;2023-08-20T18:56:03;1027.2;;;25.1;51.6
74437;BME280;62868;52.360;30.424;2023-08-20T19:00:29;1027.2;;;25;51.7
74437;BME280;62868;52.360;30.424;2023-08-20T19:05:25;1027.2;;;25;52.1
74437;BME280;62868;52.360;30.424;2023-08-20T19:10:58;1027.4;;;24.9;52.4
74437;BME280;62868;52.360;30.424;2023-08-20T19:15:51;1027.2;;;24.8;52.5
74437;BME280;62868;52.360;30.424;2023-08-20T19:21:01;1027.2;;;24.7;52.9
74437;BME280;62868;52.360;30.424;2023-08-20T19:25:25;1027.2;;;24.6;53.2
74437;BME280;62868;52.360;30.424;2023-08-20T19:30:25;1027.2;;;24.6;53.4
74437;BME280;62868;52.360;30.424;2023-08-20T19:35:26;1027.1;;;24.6;53.3
74437;BME280;62868;52.360;30.424;2023-08-20T19:41:01;1027.1;;;24.5;53.6
74437;BME280;62868;52.360;30.424;2023-08-20T19:45:55;1027.1;;;24.4;53.9
74437;BME280;62868;52.360;30.424;2023-08-20T19:50:27;1027.1;;;24.4;54
74437;BME280;62868;52.360;30.424;2023-08-20T19:55:54;1027.2;;;24.3;54.3
74437;BME280;62868;52.360;30.424;2023-08-20T20:01:04;1027.1;;;24.3;54.4
74437;BME280;62868;52.360;30.424;2023-08-20T20:05:29;1027.2;;;24.2;54.6
74437;BME280;62868;52.360;30.424;2023-08-20T20:10:25;1027.3;;;24.1;54.9
74437;BME280;62868;52.360;30.424;2023-08-20T20:16:03;1027.3;;;24.1;55
74437;BME280;62868;52.360;30.424;2023-08-20T20:21:03;1027.3;;;24.1;55
74437;BME280;62868;52.360;30.424;2023-08-20T20:26:03;1027.3;;;24.1;55
74437;BME280;62868;52.360;30.424;2023-08-20T20:31:04;1027.3;;;24.1;55.2
74437;BME280;62868;52.360;30.424;2023-08-20T20:35:45;1027.3;;;24;55.4
74437;BME280;62868;52.360;30.424;2023-08-20T20:40:41;1027.2;;;24;55.6
74437;BME280;62868;52.360;30.424;2023-08-20T20:45:53;1027.1;;;24;55.8
74437;BME280;62868;52.360;30.424;2023-08-20T20:51:03;1027.1;;;24;55.9
74437;BME280;62868;52.360;30.424;2023-08-20T20:55:44;1027.1;;;24.1;55.9
74437;BME280;62868;52.360;30.424;2023-08-20T21:00:35;1027.1;;;24.1;56
74437;BME280;62868;52.360;30.424;2023-08-20T21:06:04;1027.1;;;24;56.3
74437;BME280;62868;52.360;30.424;2023-08-20T21:10:35;1027.2;;;24.1;56.3
74437;BME280;62868;52.360;30.424;2023-08-20T21:15:25;1027.2;;;24.1;56.5
74437;BME280;62868;52.360;30.424;2023-08-20T21:20:39;1027.1;;;24.1;56.6
74437;BME280;62868;52.360;30.424;2023-08-20T21:25:47;1027.2;;;24.1;56.6
74437;BME280;62868;52.360;30.424;2023-08-20T21:30:35;1027.3;;;24;56.8
74437;BME280;62868;52.360;30.424;2023-08-20T21:35:27;1027.2;;;23.9;56.9
74437;BME280;62868;52.360;30.424;2023-08-20T21:41:03;1027.2;;;23.9;57.1
74437;BME280;62868;52.360;30.424;2023-08-20T21:45:41;1027.3;;;23.8;57.2
74437;BME280;62868;52.360;30.424;2023-08-20T21:50:33;1027.3;;;23.7;57.5
74437;BME280;62868;52.360;30.424;2023-08-20T21:55:39;1027.3;;;23.6;57.6
74437;BME280;62868;52.360;30.424;2023-08-20T22:00:33;1027.4;;;23.5;57.8
74437;BME280;62868;52.360;30.424;2023-08-20T22:05:49;1027.4;;;23.5;58
74437;BME280;62868;52.360;30.424;2023-08-20T22:11:03;1027.4;;;23.4;58.1
74437;BME280;62868;52.360;30.424;2023-08-20T22:15:44;1027.4;;;23.4;58.2
74437;BME280;62868;52.360;30.424;2023-08-20T22:20:29;1027.4;;;23.3;58.3
74437;BME280;62868;52.360;30.424;2023-08-20T22:25:27;1027.5;;;23.3;58.4
74437;BME280;62868;52.360;30.424;2023-08-20T22:30:25;1027.6;;;23.2;58.5
74437;BME280;62868;52.360;30.424;2023-08-20T22:35:35;1027.6;;;23.1;58.7
74437;BME280;62868;52.360;30.424;2023-08-20T22:40:45;1027.7;;;23;59
74437;BME280;62868;52.360;30.424;2023-08-20T22:45:49;1027.7;;;22.9;59.2
74437;BME280;62868;52.360;30.424;2023-08-20T22:50:30;1027.7;;;22.8;59.3
74437;BME280;62868;52.360;30.424;2023-08-20T22:55:48;1027.7;;;22.7;59.5
74437;BME280;62868;52.360;30.424;2023-08-20T23:01:04;1027.6;;;22.7;59.6
74437;BME280;62868;52.360;30.424;2023-08-20T23:05:51;1027.7;;;22.7;59.5
74437;BME280;62868;52.360;30.424;2023-08-20T23:10:32;1027.7;;;22.6;59.7
74437;BME280;62868;52.360;30.424;2023-08-20T23:15:44;1027.7;;;22.6;59.9
74437;BME280;62868;52.360;30.424;2023-08-20T23:21:04;1027.6;;;22.5;59.9
74437;BME280;62868;52.360;30.424;2023-08-20T23:25:29;1027.5;;;22.5;60.1
74437;BME280;62868;52.360;30.424;2023-08-20T23:30:26;1027.6;;;22.4;60.2
74437;BME280;62868;52.360;30.424;2023-08-20T23:35:42;1027.6;;;22.4;60.3
74437;BME280;62868;52.360;30.424;2023-08-20T23:40:52;1027.5;;;22.3;60.4
74437;BME280;62868;52.360;30.424;2023-08-20T23:46:04;1027.5;;;22.3;60.5
74437;BME280;62868;52.360;30.424;2023-08-20T23:50:44;1027.5;;;22.2;60.6
74437;BME280;62868;52.360;30.424;2023-08-20T23:55:30;1027.5;;;22.2;60.6
